MAPA DE AEROPUERTO

INFORMACIÓN METAR y TAF

METAR FOR GCTS
ADDS - METARS form results

(0756 UTC 15 July 2020)
Data provider http://aviationweather.gov/metar/data/
 
METAR text: GCTS 150730Z 33005KT CAVOK 22/18 Q1012 NOSIG
Conditions at: GCTS (TENERIFE SUR/REI, ES) observed 0730 UTC 15 July 2020
Temperature: 22.0°C (72°F)
Dewpoint: 18.0°C (64°F) [RH = 78%]
Pressure (altimeter): 29.88 inches Hg (1012.0 mb)
Winds: from the NNW (330 degrees) at 6 MPH (5 knots; 2.6 m/s)
Visibility: 6 or more miles (10+ km)
Ceiling: ceiling and visibility are OK
Clouds: unknown
Weather: no significant weather observed at this time

METAR text: GCTS 150700Z 33004KT 230V030 CAVOK 21/18 Q1012 NOSIG
Conditions at: GCTS (TENERIFE SUR/REI, ES) observed 0700 UTC 15 July 2020
Temperature: 21.0°C (70°F)
Dewpoint: 18.0°C (64°F) [RH = 83%]
Pressure (altimeter): 29.88 inches Hg (1012.0 mb)
Winds: from the NNW (330 degrees) at 5 MPH (4 knots; 2.1 m/s)
Visibility: 6 or more miles (10+ km)
Ceiling: ceiling and visibility are OK
Clouds: unknown
Weather: no significant weather observed at this time

Forecast for: GCTS (TENERIFE SUR/REI, ES)
Text: TAF GCTS 150200Z 1503/1603 31003KT CAVOK TX28/1514Z TN22/1506Z
Forecast period: 0300 to 0900 UTC 15 July 2020
Forecast type: FROM: standard forecast or significant change
Winds: from the NW (310 degrees) at 3 MPH (3 knots; 1.5 m/s)
Visibility: 6 or more miles 10+ km)
Ceiling: unknown
Clouds: missing
Weather: no significant weather forecast for this period
Text: BECMG 1509/1511 07018KT
Forecast period: 0900 to 2000 UTC 15 July 2020
Forecast type: BECOMING: Conditions expected to become as follows by 1100 UTC 15 July 2020
Winds: from the ENE (70 degrees) at 21 MPH (18 knots; 9.3 m/s)
Visibility: 6 or more miles 10+ km)
Ceiling: unknown
Clouds: missing
Weather: no significant weather forecast for this period
Text: BECMG 1520/1522 04007KT
Forecast period: 2000 UTC 15 July 2020 to 0300 UTC 16 July 2020
Forecast type: BECOMING: Conditions expected to become as follows by 2200 UTC 15 July 2020
Winds: from the NE (40 degrees) at 8 MPH (7 knots; 3.6 m/s)
Visibility: 6 or more miles 10+ km)
Ceiling: unknown
Clouds: missing
Weather: no significant weather forecast for this period